createdAt,value
2022-08-01T00:02:24.582Z,100268.41
2022-08-01T00:07:27.456Z,100271.17
2022-08-01T00:12:30.224Z,100268.23
2022-08-01T00:17:33.120Z,100259.13
2022-08-01T00:22:36.114Z,100259.19
2022-08-01T00:27:38.973Z,100252.36
2022-08-01T00:32:44.905Z,100250.62
2022-08-01T00:37:47.800Z,100248.95
2022-08-01T00:42:50.591Z,100239.44
2022-08-01T00:47:54.906Z,100240.96
2022-08-01T00:52:59.199Z,100239.04
2022-08-01T00:58:05.181Z,100243.04
2022-08-01T01:03:09.776Z,100252.20
2022-08-01T01:08:24.457Z,100249.80
2022-08-01T01:13:48.457Z,100246.00
2022-08-01T01:19:00.427Z,100247.45
2022-08-01T01:24:40.045Z,100245.98
2022-08-01T01:30:00.253Z,100247.02
2022-08-01T01:35:26.987Z,100247.64
2022-08-01T01:40:29.844Z,100248.00
2022-08-01T01:45:32.657Z,100248.95
2022-08-01T01:50:35.431Z,100245.59
2022-08-01T01:55:49.099Z,100245.91
2022-08-01T02:00:53.951Z,100245.60
2022-08-01T02:05:58.120Z,100245.78
2022-08-01T02:11:20.633Z,100245.39
2022-08-01T02:16:26.335Z,100240.39
2022-08-01T02:21:33.625Z,100241.80
2022-08-01T02:26:36.555Z,100239.34
2022-08-01T02:31:40.873Z,100247.70
2022-08-01T02:36:43.605Z,100250.97
2022-08-01T02:41:49.320Z,100249.08
2022-08-01T02:47:05.769Z,100251.05
2022-08-01T02:52:09.975Z,100254.42
2022-08-01T02:57:13.981Z,100256.55
2022-08-01T03:02:17.072Z,100255.87
2022-08-01T03:07:19.816Z,100260.95
2022-08-01T03:12:28.146Z,100259.14
2022-08-01T03:17:31.045Z,100258.76
2022-08-01T03:22:33.907Z,100254.48
2022-08-01T03:27:37.729Z,100252.79
2022-08-01T03:32:40.684Z,100254.30
2022-08-01T03:38:14.807Z,100258.67
2022-08-01T03:43:23.721Z,100268.08
2022-08-01T03:48:29.977Z,100273.33
2022-08-01T03:53:33.154Z,100277.95
2022-08-01T03:58:37.710Z,100281.04
2022-08-01T04:10:59.612Z,100291.45
2022-08-01T04:16:02.510Z,100296.10
2022-08-01T04:21:05.273Z,100304.72
2022-08-01T04:26:08.143Z,100307.92
2022-08-01T04:31:10.943Z,100308.03
2022-08-01T04:36:13.887Z,100309.05
2022-08-01T04:41:16.734Z,100311.96
2022-08-01T04:46:19.502Z,100313.98
2022-08-01T04:51:23.424Z,100314.19
2022-08-01T04:56:26.249Z,100316.33
2022-08-01T05:01:29.151Z,100317.27
2022-08-01T05:06:32.010Z,100323.96
2022-08-01T05:11:34.916Z,100325.99
2022-08-01T05:16:37.748Z,100326.02
2022-08-01T05:21:40.724Z,100334.51
2022-08-01T05:26:43.513Z,100337.73
2022-08-01T05:31:47.359Z,100345.52
2022-08-01T05:36:52.977Z,100346.01
2022-08-01T05:41:59.567Z,100347.65
2022-08-01T05:47:03.765Z,100349.26
2022-08-01T05:52:06.945Z,100352.14
2022-08-01T05:57:10.051Z,100353.88
2022-08-01T06:02:14.140Z,100360.00
2022-08-01T06:07:16.987Z,100359.55
2022-08-01T06:12:19.841Z,100358.90
2022-08-01T06:17:22.609Z,100355.57
2022-08-01T06:22:25.650Z,100356.30
2022-08-01T06:27:28.624Z,100359.24
2022-08-01T06:32:32.187Z,100363.29
2022-08-01T06:37:34.963Z,100360.73
2022-08-01T06:42:38.184Z,100362.17
2022-08-01T06:47:41.567Z,100365.42
2022-08-01T06:52:44.441Z,100363.89
2022-08-01T06:57:50.939Z,100365.71
2022-08-01T07:02:55.830Z,100362.02
2022-08-01T07:07:59.237Z,100358.61
2022-08-01T07:13:02.067Z,100357.17
2022-08-01T07:18:05.768Z,100362.30
2022-08-01T07:23:09.398Z,100355.52
2022-08-01T07:28:16.593Z,100357.05
2022-08-01T07:33:19.405Z,100355.44
2022-08-01T07:38:22.288Z,100355.84
2022-08-01T07:43:25.120Z,100354.21
2022-08-01T07:48:28.139Z,100352.63
2022-08-01T07:53:30.991Z,100355.80
2022-08-01T07:58:34.787Z,100351.37
2022-08-01T08:03:37.625Z,100349.14
2022-08-01T08:08:40.540Z,100342.89
2022-08-01T08:13:43.286Z,100341.72
2022-08-01T08:18:46.173Z,100351.67
2022-08-01T08:24:08.038Z,100356.12
2022-08-01T08:29:12.345Z,100359.83
2022-08-01T08:34:15.143Z,100357.09
2022-08-01T08:39:19.907Z,100359.08
2022-08-01T08:44:23.021Z,100371.52
2022-08-01T08:49:35.661Z,100375.98
2022-08-01T08:54:39.915Z,100375.21
2022-08-01T08:59:46.666Z,100378.59
2022-08-01T09:04:51.075Z,100377.38
2022-08-01T09:09:53.887Z,100386.05
2022-08-01T09:14:57.985Z,100382.65
2022-08-01T09:20:00.808Z,100388.32
2022-08-01T09:25:09.810Z,100393.24
2022-08-01T09:30:19.333Z,100394.95
2022-08-01T09:35:29.817Z,100395.25
2022-08-01T09:41:00.313Z,100398.05
2022-08-01T09:46:14.481Z,100396.30
2022-08-01T09:51:58.624Z,100385.66
2022-08-01T09:56:43.462Z,100394.88
2022-08-01T10:01:49.340Z,100396.55
2022-08-01T10:06:55.675Z,100389.63
2022-08-01T10:11:59.714Z,100395.65
2022-08-01T10:17:05.198Z,100390.84
2022-08-01T10:22:11.090Z,100394.55
2022-08-01T10:27:24.240Z,100387.39
2022-08-01T10:32:28.961Z,100390.33
2022-08-01T10:37:34.810Z,100387.38
2022-08-01T10:42:37.548Z,100388.11
2022-08-01T10:48:21.869Z,100384.20
2022-08-01T10:53:31.699Z,100383.69
2022-08-01T10:58:47.596Z,100382.90
2022-08-01T11:04:02.861Z,100383.81
2022-08-01T11:09:40.703Z,100378.09
2022-08-01T11:14:58.884Z,100373.89
2022-08-01T11:20:22.537Z,100369.66
2022-08-01T11:26:05.247Z,100378.90
2022-08-01T11:31:08.050Z,100377.00
2022-08-01T11:36:15.782Z,100371.04
2022-08-01T11:41:38.276Z,100372.89
2022-08-01T11:47:08.784Z,100378.73
2022-08-01T11:52:19.297Z,100373.80
2022-08-01T11:57:24.356Z,100369.84
2022-08-01T12:02:37.721Z,100368.89
2022-08-01T12:07:42.619Z,100366.48
2022-08-01T12:12:50.222Z,100358.08
2022-08-01T12:18:01.449Z,100359.45
2022-08-01T12:23:09.934Z,100356.44
2022-08-01T12:28:14.883Z,100355.67
2022-08-01T12:33:18.929Z,100356.36
2022-08-01T12:38:27.940Z,100354.29
2022-08-01T12:43:30.728Z,100352.46
2022-08-01T12:48:33.472Z,100356.55
2022-08-01T12:53:41.269Z,100352.52
2022-08-01T12:58:44.623Z,100349.05
2022-08-01T13:04:05.334Z,100342.64
2022-08-01T13:09:10.064Z,100339.58
2022-08-01T13:14:28.299Z,100337.48
2022-08-01T13:19:48.251Z,100332.78
2022-08-01T13:24:51.034Z,100328.88
2022-08-01T13:29:54.509Z,100328.95
2022-08-01T13:35:04.982Z,100330.19
2022-08-01T13:40:09.537Z,100330.17
2022-08-01T13:45:14.543Z,100332.79
2022-08-01T13:50:18.041Z,100331.42
2022-08-01T13:55:20.943Z,100329.67
2022-08-01T14:00:23.686Z,100334.52
2022-08-01T14:05:26.434Z,100340.28
2022-08-01T14:10:29.259Z,100337.15
2022-08-01T14:15:38.369Z,100342.00
2022-08-01T14:20:43.065Z,100340.67
2022-08-01T14:26:02.773Z,100343.30
2022-08-01T14:31:09.026Z,100345.54
2022-08-01T14:36:29.334Z,100351.52
2022-08-01T14:41:33.713Z,100351.02
2022-08-01T14:46:36.574Z,100345.77
2022-08-01T14:51:39.700Z,100343.25
2022-08-01T14:56:42.466Z,100342.66
2022-08-01T15:01:45.241Z,100347.87
2022-08-01T15:06:48.688Z,100352.98
2022-08-01T15:11:51.465Z,100355.08
2022-08-01T15:16:54.226Z,100352.78
2022-08-01T15:21:57.035Z,100354.89
2022-08-01T15:26:59.890Z,100354.49
2022-08-01T15:32:04.699Z,100353.14
2022-08-01T15:37:07.921Z,100352.04
2022-08-01T15:42:13.283Z,100358.49
2022-08-01T15:47:25.166Z,100356.14
2022-08-01T15:52:31.779Z,100351.69
2022-08-01T15:57:35.003Z,100350.40
2022-08-01T16:02:37.820Z,100349.55
2022-08-01T16:07:59.413Z,100348.24
2022-08-01T16:13:07.520Z,100347.13
2022-08-01T16:18:13.132Z,100354.94
2022-08-01T16:23:15.925Z,100359.64
2022-08-01T16:28:19.717Z,100359.93
2022-08-01T16:33:47.543Z,100364.60
2022-08-01T16:38:46.413Z,100368.54
2022-08-01T16:43:53.405Z,100367.17
2022-08-01T16:48:57.464Z,100363.96
2022-08-01T16:54:00.817Z,100365.44
2022-08-01T16:59:03.683Z,100366.45
2022-08-01T17:04:06.652Z,100366.61
2022-08-01T17:09:09.687Z,100371.27
2022-08-01T17:14:12.485Z,100372.25
2022-08-01T17:19:15.372Z,100379.65
2022-08-01T17:24:18.738Z,100384.61
2022-08-01T17:29:21.504Z,100385.81
2022-08-01T17:34:24.344Z,100385.83
2022-08-01T17:39:38.455Z,100388.50
2022-08-01T17:44:42.066Z,100393.16
2022-08-01T17:49:55.035Z,100395.39
2022-08-01T17:54:58.802Z,100401.63
2022-08-01T18:00:01.823Z,100403.04
2022-08-01T18:05:04.868Z,100402.11
2022-08-01T18:10:13.533Z,100402.95
2022-08-01T18:15:23.386Z,100402.91
2022-08-01T18:20:30.087Z,100405.70
2022-08-01T18:25:34.026Z,100409.12
2022-08-01T18:30:36.984Z,100410.92
2022-08-01T18:35:52.385Z,100412.54
2022-08-01T18:40:56.861Z,100418.48
2022-08-01T18:46:01.330Z,100424.11
2022-08-01T18:51:04.115Z,100427.90
2022-08-01T18:56:12.138Z,100434.66
2022-08-01T19:01:15.149Z,100437.73
2022-08-01T19:06:17.952Z,100442.63
2022-08-01T19:11:21.023Z,100444.88
2022-08-01T19:16:23.826Z,100451.86
2022-08-01T19:21:26.802Z,100451.84
2022-08-01T19:26:29.686Z,100455.52
2022-08-01T19:31:32.498Z,100458.14
2022-08-01T19:36:38.665Z,100455.09
2022-08-01T19:41:41.805Z,100465.11
2022-08-01T19:46:44.662Z,100467.58
2022-08-01T19:51:50.447Z,100470.14
2022-08-01T19:56:53.414Z,100463.89
2022-08-01T20:01:56.827Z,100461.79
2022-08-01T20:06:59.689Z,100464.75
2022-08-01T20:12:02.528Z,100469.55
2022-08-01T20:17:05.810Z,100471.05
2022-08-01T20:22:08.579Z,100472.40
2022-08-01T20:27:15.851Z,100478.47
2022-08-01T20:32:18.818Z,100479.89
2022-08-01T20:38:04.100Z,100478.36
2022-08-01T20:42:45.043Z,100481.23
2022-08-01T20:47:48.124Z,100475.11
2022-08-01T20:52:51.856Z,100475.61
2022-08-01T20:57:54.783Z,100478.77
2022-08-01T21:03:15.691Z,100480.30
2022-08-01T21:08:41.020Z,100481.09
2022-08-01T21:13:49.169Z,100485.35
2022-08-01T21:19:18.691Z,100485.41
2022-08-01T21:24:23.358Z,100490.14
2022-08-01T21:29:26.143Z,100489.96
2022-08-01T21:34:29.914Z,100490.59
2022-08-01T21:39:34.471Z,100492.90
2022-08-01T21:44:45.496Z,100496.41
2022-08-01T21:49:48.262Z,100496.13
2022-08-01T21:55:35.486Z,100491.65
2022-08-01T22:00:40.643Z,100495.25
2022-08-01T22:05:50.483Z,100495.20
2022-08-01T22:10:58.967Z,100496.69
2022-08-01T22:16:03.944Z,100496.30
2022-08-01T22:21:06.814Z,100499.96
2022-08-01T22:26:11.049Z,100502.73
2022-08-01T22:31:16.208Z,100500.80
2022-08-01T22:36:19.011Z,100506.05
2022-08-01T22:41:29.215Z,100507.30
2022-08-01T22:46:49.065Z,100515.92
2022-08-01T22:52:08.175Z,100513.26
2022-08-01T22:57:16.099Z,100513.98
2022-08-01T23:02:19.846Z,100518.02
2022-08-01T23:07:24.458Z,100517.34
2022-08-01T23:12:27.683Z,100516.91
2022-08-01T23:17:31.705Z,100516.06
2022-08-01T23:22:36.443Z,100516.95
2022-08-01T23:27:52.069Z,100517.80
2022-08-01T23:33:07.887Z,100519.73
2022-08-01T23:38:11.015Z,100523.45
2022-08-01T23:43:17.233Z,100521.90
2022-08-01T23:48:20.794Z,100525.45
2022-08-01T23:53:23.586Z,100529.16
2022-08-01T23:58:26.493Z,100528.97
